Time;durP1;ratioP1;P1;durP2;ratioP2;P2;SDS_P1;SDS_P2;PMS_P1;PMS_P2;Temp;Humidity;BMP_temperature;BMP_pressure;BME280_temperature;BME280_humidity;BME280_pressure;Samples;Min_cycle;Max_cycle;Signal;HPM_P1;HPM_P2
2023/09/04 06:01:42;;;;;;;13.03;5.77;;;;;;;;;;5331964;23;21044;-75
2023/09/04 06:04:11;;;;;;;11.47;5.90;;;;;;;;;;4916548;29;20418;-74
2023/09/04 06:06:38;;;;;;;7.30;4.90;;;;;;;;;;4917040;29;20406;-74
2023/09/04 06:09:05;;;;;;;7.13;5.20;;;;;;;;;;4916862;29;20421;-75
2023/09/04 06:11:32;;;;;;;10.23;5.87;;;;;;;;;;4916778;29;20481;-76
2023/09/04 06:13:58;;;;;;;5.83;5.00;;;;;;;;;;4916602;29;20474;-78
2023/09/04 06:16:24;;;;;;;7.73;5.50;;;;;;;;;;4916044;29;20422;-77
2023/09/04 06:18:50;;;;;;;10.37;6.57;;;;;;;;;;4915796;29;20411;-77
2023/09/04 06:21:16;;;;;;;11.73;6.57;;;;;;;;;;4915825;29;20475;-77
2023/09/04 06:23:42;;;;;;;8.97;5.90;;;;;;;;;;4933131;29;20421;-77
2023/09/04 06:26:08;;;;;;;8.30;5.47;;;;;;;;;;4934828;29;20425;-77
2023/09/04 06:28:34;;;;;;;11.27;6.30;;;;;;;;;;4934673;29;20421;-77
2023/09/04 06:31:00;;;;;;;9.00;4.97;;;;;;;;;;4934832;29;20440;-77
2023/09/04 06:33:26;;;;;;;11.63;5.80;;;;;;;;;;4919647;29;20999;-77
2023/09/04 06:35:53;;;;;;;8.20;6.00;;;;;;;;;;4915991;29;20519;-77
2023/09/04 06:38:19;;;;;;;10.93;5.60;;;;;;;;;;4917341;29;20470;-76
2023/09/04 06:40:44;;;;;;;8.80;5.70;;;;;;;;;;4915675;29;20434;-77
2023/09/04 06:43:10;;;;;;;9.87;6.20;;;;;;;;;;4928077;29;20437;-77
2023/09/04 06:45:37;;;;;;;14.30;7.30;;;;;;;;;;4915945;29;20537;-77
2023/09/04 06:48:04;;;;;;;7.70;5.50;;;;;;;;;;4914242;29;20569;-77
2023/09/04 06:50:30;;;;;;;10.83;6.10;;;;;;;;;;4915554;29;20482;-77
2023/09/04 06:52:56;;;;;;;8.53;5.43;;;;;;;;;;4915772;29;20521;-75
2023/09/04 06:55:22;;;;;;;11.37;5.93;;;;;;;;;;4931219;29;20883;-75
2023/09/04 06:57:48;;;;;;;11.40;6.50;;;;;;;;;;4918382;29;20951;-75
2023/09/04 07:00:14;;;;;;;10.23;5.73;;;;;;;;;;4918732;29;20788;-75
2023/09/04 07:02:41;;;;;;;9.40;5.73;;;;;;;;;;4922248;29;20423;-75
2023/09/04 07:05:09;;;;;;;8.07;5.20;;;;;;;;;;4921884;29;20502;-76
2023/09/04 07:07:37;;;;;;;9.83;6.00;;;;;;;;;;4925139;29;20910;-76
2023/09/04 07:10:04;;;;;;;10.83;5.63;;;;;;;;;;4935191;29;20445;-76
2023/09/04 07:12:31;;;;;;;7.73;5.13;;;;;;;;;;4934906;29;20437;-76
2023/09/04 07:14:57;;;;;;;9.30;5.40;;;;;;;;;;4934879;29;20505;-76
2023/09/04 07:17:23;;;;;;;6.03;5.20;;;;;;;;;;4918835;29;20513;-76
2023/09/04 07:19:49;;;;;;;7.80;4.80;;;;;;;;;;4914200;29;20983;-76
2023/09/04 07:22:15;;;;;;;6.30;4.50;;;;;;;;;;4915590;29;20797;-76
2023/09/04 07:24:41;;;;;;;7.80;5.70;;;;;;;;;;4915948;29;20461;-75
2023/09/04 07:27:07;;;;;;;7.60;5.60;;;;;;;;;;4926645;29;20433;-75
2023/09/04 07:29:33;;;;;;;9.53;5.10;;;;;;;;;;4934639;29;20414;-75
2023/09/04 07:32:00;;;;;;;8.00;4.70;;;;;;;;;;4933266;29;20959;-75
2023/09/04 07:34:26;;;;;;;9.40;5.53;;;;;;;;;;4935010;29;20615;-76
2023/09/04 07:36:52;;;;;;;9.07;6.10;;;;;;;;;;4927953;29;20822;-76
2023/09/04 07:39:18;;;;;;;12.93;5.40;;;;;;;;;;4917672;29;20450;-76
2023/09/04 07:41:44;;;;;;;9.20;5.33;;;;;;;;;;4917372;29;20431;-76
2023/09/04 07:44:10;;;;;;;8.17;5.87;;;;;;;;;;4913829;29;20921;-77
2023/09/04 07:46:36;;;;;;;8.83;5.70;;;;;;;;;;4900601;29;20532;-76
2023/09/04 07:49:02;;;;;;;8.20;4.83;;;;;;;;;;4919097;29;20430;-76
2023/09/04 07:51:28;;;;;;;11.20;5.10;;;;;;;;;;4921958;29;20446;-77
2023/09/04 07:53:54;;;;;;;12.17;4.70;;;;;;;;;;4910517;29;20466;-76
2023/09/04 07:56:22;;;;;;;5.60;4.53;;;;;;;;;;4929856;29;20428;-77
2023/09/04 07:58:48;;;;;;;6.50;4.93;;;;;;;;;;4943786;29;20433;-75
2023/09/04 08:01:14;;;;;;;7.17;4.57;;;;;;;;;;4940133;29;20834;-76
2023/09/04 08:03:41;;;;;;;9.43;5.07;;;;;;;;;;4939018;29;20474;-75
2023/09/04 08:06:07;;;;;;;5.87;4.30;;;;;;;;;;4929400;29;20501;-77
2023/09/04 08:08:33;;;;;;;8.73;5.60;;;;;;;;;;4920986;29;20453;-76
2023/09/04 08:10:59;;;;;;;6.90;5.53;;;;;;;;;;4921284;29;20450;-77
2023/09/04 08:13:25;;;;;;;6.80;5.17;;;;;;;;;;4920902;29;20820;-77
2023/09/04 08:15:51;;;;;;;7.60;4.90;;;;;;;;;;4930317;29;20461;-77
2023/09/04 08:18:17;;;;;;;6.57;5.13;;;;;;;;;;4938670;29;20429;-76
2023/09/04 08:20:43;;;;;;;5.93;4.40;;;;;;;;;;4937659;29;20434;-76
2023/09/04 08:23:12;;;;;;;6.03;5.10;;;;;;;;;;4939872;29;20413;-76
2023/09/04 08:25:38;;;;;;;8.57;4.97;;;;;;;;;;4932832;29;20449;-77
2023/09/04 08:28:04;;;;;;;6.30;4.80;;;;;;;;;;4921410;29;20455;-77
2023/09/04 08:30:31;;;;;;;9.30;5.27;;;;;;;;;;4921486;29;20442;-78
2023/09/04 08:32:56;;;;;;;8.43;5.30;;;;;;;;;;4921807;29;20458;-77
2023/09/04 08:35:24;;;;;;;7.83;5.20;;;;;;;;;;4926246;29;20929;-77
2023/09/04 08:37:50;;;;;;;6.47;4.47;;;;;;;;;;4936785;29;20418;-75
2023/09/04 08:40:16;;;;;;;7.83;4.70;;;;;;;;;;4936115;29;20477;-75
2023/09/04 08:42:45;;;;;;;7.00;5.50;;;;;;;;;;4936466;29;20440;-75
2023/09/04 08:45:11;;;;;;;6.90;4.80;;;;;;;;;;4935234;29;21016;-74
2023/09/04 08:47:41;;;;;;;9.40;5.67;;;;;;;;;;4918029;29;20504;-76
2023/09/04 08:50:07;;;;;;;6.37;4.60;;;;;;;;;;4918356;29;20795;-74
2023/09/04 08:52:35;;;;;;;4.50;4.03;;;;;;;;;;4918582;29;20977;-73
2023/09/04 08:55:01;;;;;;;8.63;5.17;;;;;;;;;;4919036;29;20414;-74
2023/09/04 08:57:29;;;;;;;6.80;4.80;;;;;;;;;;4918882;29;20406;-74
2023/09/04 08:59:55;;;;;;;6.50;4.90;;;;;;;;;;4925620;29;20440;-74
2023/09/04 09:02:21;;;;;;;7.67;4.40;;;;;;;;;;4941121;29;20457;-74
2023/09/04 09:04:47;;;;;;;11.23;4.83;;;;;;;;;;4939388;29;20410;-74
2023/09/04 09:07:13;;;;;;;7.17;4.30;;;;;;;;;;4939878;29;20424;-75
2023/09/04 09:09:41;;;;;;;10.07;5.50;;;;;;;;;;4933853;29;20426;-75
2023/09/04 09:12:07;;;;;;;6.73;5.57;;;;;;;;;;4918368;29;20834;-74
2023/09/04 09:14:33;;;;;;;5.97;4.50;;;;;;;;;;4918031;29;20554;-75
2023/09/04 09:17:05;;;;;;;7.40;5.00;;;;;;;;;;4918967;29;20411;-75
2023/09/04 09:19:32;;;;;;;6.97;4.87;;;;;;;;;;4920667;29;20418;-75
2023/09/04 09:22:14;;;;;;;7.80;5.60;;;;;;;;;;4919675;29;20912;-74
2023/09/04 09:24:54;;;;;;;4.93;4.07;;;;;;;;;;4920208;29;20526;-74
2023/09/04 09:27:25;;;;;;;6.97;4.50;;;;;;;;;;4918062;29;20418;-75
2023/09/04 09:29:52;;;;;;;6.13;4.30;;;;;;;;;;4916146;29;20510;-75
2023/09/04 09:32:19;;;;;;;6.40;4.80;;;;;;;;;;4917300;29;20439;-75
2023/09/04 09:34:52;;;;;;;5.63;4.37;;;;;;;;;;4917170;29;20470;-76
2023/09/04 09:37:18;;;;;;;8.37;4.53;;;;;;;;;;4932684;29;20446;-75
2023/09/04 09:39:44;;;;;;;5.20;4.03;;;;;;;;;;4937163;29;20957;-75
2023/09/04 09:42:11;;;;;;;7.43;4.30;;;;;;;;;;4936399;29;20430;-75
2023/09/04 09:44:37;;;;;;;6.27;4.83;;;;;;;;;;4935155;29;20789;-72
2023/09/04 09:47:03;;;;;;;5.70;4.40;;;;;;;;;;4936269;29;20418;-75
2023/09/04 09:49:30;;;;;;;6.10;4.20;;;;;;;;;;4936007;29;20418;-73
2023/09/04 09:51:56;;;;;;;5.80;4.53;;;;;;;;;;4928238;29;20501;-76
2023/09/04 09:54:37;;;;;;;5.73;4.53;;;;;;;;;;4917684;29;20477;-77
2023/09/04 09:57:07;;;;;;;5.83;4.20;;;;;;;;;;4916774;29;20415;-76
2023/09/04 09:59:34;;;;;;;5.60;4.50;;;;;;;;;;4922660;29;20414;-77
2023/09/04 10:02:01;;;;;;;5.57;4.03;;;;;;;;;;4917050;29;20514;-77
2023/09/04 10:04:28;;;;;;;3.93;3.83;;;;;;;;;;4920852;29;20470;-77
2023/09/04 10:06:54;;;;;;;4.93;4.10;;;;;;;;;;4920651;29;20414;-77
2023/09/04 10:09:23;;;;;;;9.50;4.40;;;;;;;;;;4917700;29;20418;-77
2023/09/04 10:11:54;;;;;;;5.80;4.27;;;;;;;;;;4917190;29;20435;-76
2023/09/04 10:14:26;;;;;;;5.50;4.30;;;;;;;;;;4931217;29;20469;-77
2023/09/04 10:16:53;;;;;;;5.30;4.17;;;;;;;;;;4935133;29;20414;-76
2023/09/04 10:19:23;;;;;;;5.83;4.30;;;;;;;;;;4934228;29;20414;-76
2023/09/04 10:21:55;;;;;;;5.87;4.60;;;;;;;;;;4934863;29;20436;-77
2023/09/04 10:24:25;;;;;;;5.00;3.93;;;;;;;;;;4922555;29;20509;-77
2023/09/04 10:26:55;;;;;;;7.43;4.97;;;;;;;;;;4916330;29;20421;-77
2023/09/04 10:29:26;;;;;;;5.13;4.30;;;;;;;;;;4916062;29;20471;-77
2023/09/04 10:31:52;;;;;;;7.53;5.53;;;;;;;;;;4916175;29;20442;-77
2023/09/04 10:34:19;;;;;;;5.60;4.10;;;;;;;;;;4916741;29;20465;-77
2023/09/04 10:36:45;;;;;;;5.90;4.93;;;;;;;;;;4932645;29;20520;-76
2023/09/04 10:39:11;;;;;;;4.63;3.50;;;;;;;;;;4933524;29;20441;-77
2023/09/04 10:41:37;;;;;;;5.90;4.17;;;;;;;;;;4935330;29;20501;-76
2023/09/04 10:44:04;;;;;;;5.27;3.97;;;;;;;;;;4935142;29;20840;-77
2023/09/04 10:46:30;;;;;;;5.57;4.17;;;;;;;;;;4929763;29;20434;-77
2023/09/04 10:48:56;;;;;;;5.70;4.70;;;;;;;;;;4915682;29;20466;-76
2023/09/04 10:51:24;;;;;;;4.60;3.77;;;;;;;;;;4915973;29;20430;-76
2023/09/04 10:53:50;;;;;;;4.83;3.80;;;;;;;;;;4915744;29;20517;-77
2023/09/04 10:56:16;;;;;;;4.53;3.97;;;;;;;;;;4915860;29;20414;-76
2023/09/04 10:58:58;;;;;;;9.80;4.30;;;;;;;;;;4915493;29;20431;-77
2023/09/04 11:01:31;;;;;;;5.30;3.50;;;;;;;;;;4915314;29;20545;-76
2023/09/04 11:03:57;;;;;;;6.30;4.37;;;;;;;;;;4915128;29;20415;-77
2023/09/04 11:06:22;;;;;;;7.93;4.40;;;;;;;;;;4915670;29;20444;-76
2023/09/04 11:08:50;;;;;;;5.43;3.83;;;;;;;;;;4915194;29;20418;-77
2023/09/04 11:11:19;;;;;;;6.10;3.73;;;;;;;;;;4915873;29;20450;-76
2023/09/04 11:13:46;;;;;;;5.73;4.00;;;;;;;;;;4927510;29;20453;-77
2023/09/04 11:16:15;;;;;;;5.40;3.63;;;;;;;;;;4934517;29;20508;-76
2023/09/04 11:18:41;;;;;;;6.80;4.00;;;;;;;;;;4934268;29;20413;-76
2023/09/04 11:21:10;;;;;;;5.20;4.00;;;;;;;;;;4934323;29;20437;-76
2023/09/04 11:23:36;;;;;;;6.53;4.40;;;;;;;;;;4931880;29;20432;-76
2023/09/04 11:26:02;;;;;;;7.60;4.60;;;;;;;;;;4916562;29;20438;-76
2023/09/04 11:28:28;;;;;;;6.77;4.00;;;;;;;;;;4915384;29;20429;-76
2023/09/04 11:30:57;;;;;;;7.83;4.63;;;;;;;;;;4917050;29;20841;-77
2023/09/04 11:33:23;;;;;;;4.93;3.93;;;;;;;;;;4918983;29;20529;-77
2023/09/04 11:36:06;;;;;;;6.13;3.90;;;;;;;;;;4931440;29;20429;-77
2023/09/04 11:38:32;;;;;;;5.90;4.10;;;;;;;;;;4940576;29;20433;-75
2023/09/04 11:40:58;;;;;;;5.90;3.83;;;;;;;;;;4945246;29;20434;-75
2023/09/04 11:43:25;;;;;;;7.17;4.57;;;;;;;;;;4941017;29;20420;-75
2023/09/04 11:45:55;;;;;;;5.83;4.60;;;;;;;;;;4938851;29;20410;-75
2023/09/04 11:48:22;;;;;;;5.70;4.40;;;;;;;;;;4920924;29;20431;-77
2023/09/04 11:50:48;;;;;;;5.23;3.70;;;;;;;;;;4922628;29;20594;-77
2023/09/04 11:53:14;;;;;;;3.77;3.50;;;;;;;;;;4922145;29;20952;-77
2023/09/04 11:55:39;;;;;;;6.13;4.57;;;;;;;;;;4921714;29;20521;-77
2023/09/04 11:58:05;;;;;;;4.53;4.03;;;;;;;;;;4924399;29;20429;-77
2023/09/04 12:00:31;;;;;;;5.30;3.83;;;;;;;;;;4939928;29;21444;-77
2023/09/04 12:02:57;;;;;;;5.00;4.17;;;;;;;;;;4940499;29;20414;-77
2023/09/04 12:05:25;;;;;;;6.30;3.80;;;;;;;;;;4940926;29;20414;-77
2023/09/04 12:07:53;;;;;;;8.50;3.47;;;;;;;;;;4942810;29;20424;-77
2023/09/04 12:10:19;;;;;;;5.40;4.10;;;;;;;;;;4942216;29;20496;-77
2023/09/04 12:12:45;;;;;;;5.00;4.10;;;;;;;;;;4921909;29;20422;-77
2023/09/04 12:15:11;;;;;;;6.00;3.80;;;;;;;;;;4922558;29;20418;-77
2023/09/04 12:17:37;;;;;;;6.23;3.60;;;;;;;;;;4922331;29;20407;-77
2023/09/04 12:20:05;;;;;;;5.70;3.83;;;;;;;;;;4922435;29;20423;-77
2023/09/04 12:22:31;;;;;;;5.90;4.20;;;;;;;;;;4926084;29;20453;-77
2023/09/04 12:25:01;;;;;;;6.33;3.77;;;;;;;;;;4922807;29;20422;-77
2023/09/04 12:27:27;;;;;;;7.30;3.87;;;;;;;;;;4923397;29;20414;-77
2023/09/04 12:29:53;;;;;;;5.30;3.83;;;;;;;;;;4920975;29;20430;-77
2023/09/04 12:32:21;;;;;;;4.87;3.80;;;;;;;;;;4920145;29;20482;-77
2023/09/04 12:34:48;;;;;;;5.47;3.50;;;;;;;;;;4926280;29;20477;-77
2023/09/04 12:37:14;;;;;;;5.00;3.40;;;;;;;;;;4941137;29;20429;-77
2023/09/04 12:39:40;;;;;;;3.67;3.27;;;;;;;;;;4940543;29;20440;-78
2023/09/04 12:42:07;;;;;;;4.37;3.63;;;;;;;;;;4939944;29;20433;-77
2023/09/04 12:44:33;;;;;;;5.23;3.33;;;;;;;;;;4939946;29;20430;-78
2023/09/04 12:46:59;;;;;;;5.87;4.00;;;;;;;;;;4931969;29;20943;-78
2023/09/04 12:49:25;;;;;;;4.00;3.13;;;;;;;;;;4922123;29;20418;-77
2023/09/04 12:51:51;;;;;;;5.37;4.03;;;;;;;;;;4922199;29;20474;-77
2023/09/04 12:54:17;;;;;;;3.97;2.93;;;;;;;;;;4918690;29;20469;-74
2023/09/04 12:56:43;;;;;;;4.60;3.67;;;;;;;;;;4919790;29;20399;-77
2023/09/04 12:59:09;;;;;;;4.30;3.57;;;;;;;;;;4931855;29;20429;-75
2023/09/04 13:01:35;;;;;;;6.27;4.13;;;;;;;;;;4936415;29;20532;-75
2023/09/04 13:04:03;;;;;;;9.20;3.90;;;;;;;;;;4936537;29;20414;-75
2023/09/04 13:06:30;;;;;;;4.60;3.00;;;;;;;;;;4936500;29;20410;-75
2023/09/04 13:08:56;;;;;;;4.43;3.47;;;;;;;;;;4936297;29;20530;-76
2023/09/04 13:11:22;;;;;;;4.80;3.40;;;;;;;;;;4920982;29;20533;-75
2023/09/04 13:13:48;;;;;;;5.10;3.80;;;;;;;;;;4917489;29;20477;-75
2023/09/04 13:16:14;;;;;;;4.47;3.57;;;;;;;;;;4917321;29;20561;-75
2023/09/04 13:18:40;;;;;;;5.53;3.73;;;;;;;;;;4917056;29;20419;-74
2023/09/04 13:21:06;;;;;;;5.30;3.53;;;;;;;;;;4918774;29;20427;-75
2023/09/04 13:23:32;;;;;;;4.47;3.33;;;;;;;;;;4917832;29;20427;-74
2023/09/04 13:25:58;;;;;;;4.77;3.47;;;;;;;;;;4918635;29;20414;-75
2023/09/04 13:28:24;;;;;;;6.33;3.63;;;;;;;;;;4917769;29;20493;-77
2023/09/04 13:30:50;;;;;;;5.10;3.53;;;;;;;;;;4917877;29;20860;-77
2023/09/04 13:33:16;;;;;;;15.70;4.20;;;;;;;;;;4921095;29;20494;-77
2023/09/04 13:35:42;;;;;;;4.60;3.47;;;;;;;;;;4935058;29;20449;-78
2023/09/04 13:38:08;;;;;;;9.73;3.70;;;;;;;;;;4939298;29;20425;-77
2023/09/04 13:40:36;;;;;;;6.03;3.60;;;;;;;;;;4939512;29;20445;-77
2023/09/04 13:43:02;;;;;;;6.93;4.10;;;;;;;;;;4928665;29;20440;-77
2023/09/04 13:45:28;;;;;;;5.90;3.90;;;;;;;;;;4922182;29;20441;-77
2023/09/04 13:47:54;;;;;;;9.73;4.03;;;;;;;;;;4938623;29;20424;-77
2023/09/04 13:50:20;;;;;;;10.33;4.50;;;;;;;;;;4938798;29;20840;-76
2023/09/04 13:52:46;;;;;;;6.23;3.90;;;;;;;;;;4944666;29;20432;-76
2023/09/04 13:55:12;;;;;;;7.10;4.00;;;;;;;;;;4935797;29;20431;-76
2023/09/04 13:57:38;;;;;;;4.90;3.43;;;;;;;;;;4898722;29;20418;-76
2023/09/04 14:00:04;;;;;;;4.80;3.50;;;;;;;;;;4897619;29;20412;-77
2023/09/04 14:02:30;;;;;;;5.63;3.73;;;;;;;;;;4897754;29;20455;-78
2023/09/04 14:04:56;;;;;;;5.57;3.70;;;;;;;;;;4915833;29;20430;-78
2023/09/04 14:07:22;;;;;;;6.73;3.43;;;;;;;;;;4920409;29;20426;-76
2023/09/04 14:09:48;;;;;;;9.03;4.00;;;;;;;;;;4941886;29;20510;-76
2023/09/04 14:12:15;;;;;;;4.53;3.43;;;;;;;;;;4942595;29;20505;-75
2023/09/04 14:14:41;;;;;;;4.63;3.40;;;;;;;;;;4935473;29;20542;-75
2023/09/04 14:17:07;;;;;;;5.47;4.03;;;;;;;;;;4936980;29;20418;-74
2023/09/04 14:19:33;;;;;;;5.37;3.87;;;;;;;;;;4926118;29;20434;-75
2023/09/04 14:21:59;;;;;;;5.40;3.70;;;;;;;;;;4917083;29;20435;-75
2023/09/04 14:24:25;;;;;;;5.10;3.80;;;;;;;;;;4916539;29;20418;-75
2023/09/04 14:26:51;;;;;;;6.43;3.73;;;;;;;;;;4916569;29;20449;-75
2023/09/04 14:29:17;;;;;;;5.00;3.73;;;;;;;;;;4916488;29;20446;-76
2023/09/04 14:31:43;;;;;;;8.03;3.77;;;;;;;;;;4916145;29;20529;-75
2023/09/04 14:34:09;;;;;;;5.43;3.47;;;;;;;;;;4915983;29;20972;-75
2023/09/04 14:36:35;;;;;;;7.10;4.03;;;;;;;;;;4916188;29;20411;-76
2023/09/04 14:39:01;;;;;;;5.67;3.60;;;;;;;;;;4916296;29;20502;-76
2023/09/04 14:41:33;;;;;;;5.47;3.93;;;;;;;;;;4916543;29;20490;-76
2023/09/04 14:44:00;;;;;;;5.53;3.80;;;;;;;;;;4917170;29;20779;-75
2023/09/04 14:46:26;;;;;;;7.80;4.63;;;;;;;;;;4928048;29;20426;-74
2023/09/04 14:48:53;;;;;;;6.47;3.60;;;;;;;;;;4934792;29;20417;-75
2023/09/04 14:51:20;;;;;;;5.60;4.07;;;;;;;;;;4935511;29;20471;-75
2023/09/04 14:53:46;;;;;;;8.63;4.80;;;;;;;;;;4934661;29;20547;-75
2023/09/04 14:56:12;;;;;;;4.80;3.50;;;;;;;;;;4922433;29;20459;-75
2023/09/04 14:58:38;;;;;;;5.90;3.90;;;;;;;;;;4915025;29;20481;-75
2023/09/04 15:01:14;;;;;;;6.47;4.03;;;;;;;;;;4916029;29;20473;-75
2023/09/04 15:03:40;;;;;;;6.67;4.20;;;;;;;;;;4916602;29;20450;-75
2023/09/04 15:06:09;;;;;;;6.10;3.83;;;;;;;;;;4925921;29;20421;-75
2023/09/04 15:08:34;;;;;;;5.00;4.10;;;;;;;;;;4940106;29;20503;-75
2023/09/04 15:11:01;;;;;;;6.17;4.43;;;;;;;;;;4939863;29;20434;-75
2023/09/04 15:13:27;;;;;;;5.80;4.03;;;;;;;;;;4938910;29;20547;-74
2023/09/04 15:15:53;;;;;;;5.77;3.67;;;;;;;;;;4939203;29;20883;-74
2023/09/04 15:18:20;;;;;;;6.90;3.53;;;;;;;;;;4934466;29;20422;-73
2023/09/04 15:20:46;;;;;;;7.40;4.50;;;;;;;;;;4919643;29;20803;-74
2023/09/04 15:23:11;;;;;;;7.43;3.90;;;;;;;;;;4919388;29;20410;-74
2023/09/04 15:25:38;;;;;;;6.90;4.00;;;;;;;;;;4918074;29;20422;-73
2023/09/04 15:28:04;;;;;;;6.43;4.40;;;;;;;;;;4919336;29;20509;-74
2023/09/04 15:30:30;;;;;;;7.53;4.17;;;;;;;;;;4926279;29;20434;-76
2023/09/04 15:32:56;;;;;;;11.87;4.53;;;;;;;;;;4937811;29;20420;-76
2023/09/04 15:35:22;;;;;;;4.83;3.87;;;;;;;;;;4936733;29;20658;-76
2023/09/04 15:37:48;;;;;;;6.20;3.23;;;;;;;;;;4937808;29;20429;-75
2023/09/04 15:40:14;;;;;;;5.27;3.80;;;;;;;;;;4937769;29;20422;-76
2023/09/04 15:42:39;;;;;;;6.87;4.50;;;;;;;;;;4930217;29;20429;-76
2023/09/04 15:45:06;;;;;;;6.80;4.80;;;;;;;;;;4918665;29;20976;-75
2023/09/04 15:47:32;;;;;;;7.67;4.00;;;;;;;;;;4918553;29;20421;-76
2023/09/04 15:49:58;;;;;;;7.47;4.00;;;;;;;;;;4918614;29;20410;-76
2023/09/04 15:52:24;;;;;;;5.50;4.00;;;;;;;;;;4917011;29;20571;-76
2023/09/04 15:54:50;;;;;;;6.83;4.30;;;;;;;;;;4927711;29;20560;-75
2023/09/04 15:57:16;;;;;;;9.17;4.00;;;;;;;;;;4937551;29;20962;-75
2023/09/04 15:59:42;;;;;;;6.00;4.10;;;;;;;;;;4937495;29;20416;-76
2023/09/04 16:02:08;;;;;;;6.27;4.60;;;;;;;;;;4936844;29;20824;-76
2023/09/04 16:04:34;;;;;;;7.10;3.80;;;;;;;;;;4937706;29;20891;-76
2023/09/04 16:07:00;;;;;;;7.30;4.23;;;;;;;;;;4921457;29;20423;-76
2023/09/04 16:09:26;;;;;;;7.60;4.10;;;;;;;;;;4911480;29;20435;-76
2023/09/04 16:11:52;;;;;;;11.23;3.90;;;;;;;;;;4918967;29;20490;-76
2023/09/04 16:14:18;;;;;;;6.70;3.67;;;;;;;;;;4918623;29;20480;-76
2023/09/04 16:16:44;;;;;;;10.13;3.70;;;;;;;;;;4917328;29;20442;-76
2023/09/04 16:19:12;;;;;;;5.87;4.00;;;;;;;;;;4930260;29;20430;-77
2023/09/04 16:21:38;;;;;;;5.40;4.00;;;;;;;;;;4938134;29;20436;-76
2023/09/04 16:24:04;;;;;;;5.00;3.43;;;;;;;;;;4937378;29;20966;-76
2023/09/04 16:26:32;;;;;;;7.70;3.87;;;;;;;;;;4937441;29;20784;-76
2023/09/04 16:28:58;;;;;;;6.30;4.33;;;;;;;;;;4937301;29;20413;-76
2023/09/04 16:31:24;;;;;;;5.67;3.87;;;;;;;;;;4924959;29;20517;-76
2023/09/04 16:33:50;;;;;;;6.17;4.10;;;;;;;;;;4918515;29;20597;-76
2023/09/04 16:36:17;;;;;;;5.83;4.30;;;;;;;;;;4920499;29;20430;-76
2023/09/04 16:38:43;;;;;;;6.47;4.10;;;;;;;;;;4936005;29;20776;-76
2023/09/04 16:41:11;;;;;;;4.10;3.47;;;;;;;;;;4935956;29;20442;-76
2023/09/04 16:43:37;;;;;;;6.00;4.50;;;;;;;;;;4925678;29;20436;-77
2023/09/04 16:46:03;;;;;;;5.97;4.33;;;;;;;;;;4918224;29;20516;-76
2023/09/04 16:48:30;;;;;;;5.27;3.50;;;;;;;;;;4917984;29;20419;-76
2023/09/04 16:50:56;;;;;;;6.53;4.90;;;;;;;;;;4918255;29;20445;-76
2023/09/04 16:53:22;;;;;;;5.47;3.80;;;;;;;;;;4917857;29;21015;-77
2023/09/04 16:55:48;;;;;;;8.63;4.50;;;;;;;;;;4929339;29;20518;-77
2023/09/04 16:58:14;;;;;;;6.00;4.57;;;;;;;;;;4936763;29;20414;-77
2023/09/04 17:00:40;;;;;;;7.17;4.20;;;;;;;;;;4936740;29;20450;-76
2023/09/04 17:03:06;;;;;;;7.17;4.20;;;;;;;;;;4941448;29;20422;-76
2023/09/04 17:05:32;;;;;;;5.60;4.00;;;;;;;;;;4943110;29;20410;-77
2023/09/04 17:07:58;;;;;;;6.60;3.80;;;;;;;;;;4925722;29;20801;-76
2023/09/04 17:10:24;;;;;;;5.97;4.23;;;;;;;;;;4917798;29;20442;-76
2023/09/04 17:12:50;;;;;;;6.83;4.50;;;;;;;;;;4921166;29;20426;-76
2023/09/04 17:15:16;;;;;;;7.23;4.60;;;;;;;;;;4917789;29;20419;-76
2023/09/04 17:17:42;;;;;;;6.30;4.10;;;;;;;;;;4917788;29;20411;-76
2023/09/04 17:20:08;;;;;;;5.67;4.00;;;;;;;;;;4929075;29;20433;-76
2023/09/04 17:22:34;;;;;;;9.03;4.60;;;;;;;;;;4936571;29;20433;-76
2023/09/04 17:25:00;;;;;;;9.90;4.80;;;;;;;;;;4936784;29;20414;-76
2023/09/04 17:27:26;;;;;;;5.67;4.27;;;;;;;;;;4921539;29;20489;-76
2023/09/04 17:29:52;;;;;;;6.00;4.33;;;;;;;;;;4917024;29;20465;-76
2023/09/04 17:32:18;;;;;;;7.10;4.40;;;;;;;;;;4915874;29;20430;-76
2023/09/04 17:34:44;;;;;;;6.67;4.23;;;;;;;;;;4917062;29;20480;-76
2023/09/04 17:37:10;;;;;;;6.93;4.53;;;;;;;;;;4928008;29;20505;-76
2023/09/04 17:39:36;;;;;;;11.90;5.30;;;;;;;;;;4934618;29;20518;-76
2023/09/04 17:42:02;;;;;;;8.63;4.00;;;;;;;;;;4934564;29;20449;-77
2023/09/04 17:44:28;;;;;;;8.13;4.17;;;;;;;;;;4935905;29;20569;-77
2023/09/04 17:46:54;;;;;;;8.10;4.57;;;;;;;;;;4939242;29;20480;-76
2023/09/04 17:49:20;;;;;;;10.17;5.30;;;;;;;;;;4925657;29;20439;-76
2023/09/04 17:51:46;;;;;;;8.93;5.23;;;;;;;;;;4916935;29;20435;-76
2023/09/04 17:54:12;;;;;;;11.63;5.30;;;;;;;;;;4917189;29;20998;-77
2023/09/04 17:56:38;;;;;;;12.33;4.80;;;;;;;;;;4916826;29;20410;-76
2023/09/04 17:59:04;;;;;;;10.00;5.17;;;;;;;;;;4916535;29;20780;-77
2023/09/04 18:01:30;;;;;;;7.80;5.27;;;;;;;;;;4928548;29;20480;-77
2023/09/04 18:03:56;;;;;;;6.60;4.47;;;;;;;;;;4935236;29;20497;-76
2023/09/04 18:06:23;;;;;;;8.17;5.57;;;;;;;;;;4935461;29;20982;-77
2023/09/04 18:08:49;;;;;;;6.60;4.57;;;;;;;;;;4934960;29;20418;-76
2023/09/04 18:11:15;;;;;;;10.50;4.33;;;;;;;;;;4934674;29;20540;-76
2023/09/04 18:13:41;;;;;;;7.70;4.93;;;;;;;;;;4921669;29;20907;-76
2023/09/04 18:16:07;;;;;;;8.57;4.70;;;;;;;;;;4917956;29;20415;-77
2023/09/04 18:18:39;;;;;;;9.00;5.40;;;;;;;;;;4916971;29;20449;-77
2023/09/04 18:21:05;;;;;;;7.40;4.23;;;;;;;;;;4927127;29;20450;-76
2023/09/04 18:23:31;;;;;;;10.00;4.10;;;;;;;;;;4935156;29;20426;-76
2023/09/04 18:25:58;;;;;;;9.40;5.60;;;;;;;;;;4936375;29;20418;-76
2023/09/04 18:28:23;;;;;;;13.03;5.03;;;;;;;;;;4935269;29;20779;-68
2023/09/04 18:30:52;;;;;;;10.47;5.20;;;;;;;;;;4927521;29;20542;-69
2023/09/04 18:33:18;;;;;;;8.67;5.00;;;;;;;;;;4916130;29;20462;-68
2023/09/04 18:35:45;;;;;;;6.30;4.37;;;;;;;;;;4916293;29;20410;-68
2023/09/04 18:38:13;;;;;;;16.63;6.10;;;;;;;;;;4915891;29;20443;-67
2023/09/04 18:40:39;;;;;;;8.40;5.90;;;;;;;;;;4915648;29;20426;-68
2023/09/04 18:43:05;;;;;;;15.30;5.60;;;;;;;;;;4928549;29;20425;-68
2023/09/04 18:45:31;;;;;;;8.77;5.37;;;;;;;;;;4934974;29;20798;-70
2023/09/04 18:47:57;;;;;;;8.90;4.70;;;;;;;;;;4935125;29;20464;-71
2023/09/04 18:50:23;;;;;;;10.33;5.40;;;;;;;;;;4935377;29;20426;-70
2023/09/04 18:52:49;;;;;;;11.03;5.00;;;;;;;;;;4925632;29;20461;-70
2023/09/04 18:55:15;;;;;;;11.93;5.77;;;;;;;;;;4915814;29;20470;-71
2023/09/04 18:57:41;;;;;;;9.40;4.70;;;;;;;;;;4914064;29;20450;-70
2023/09/04 19:00:12;;;;;;;8.87;5.07;;;;;;;;;;4916085;29;20414;-70
2023/09/04 19:02:38;;;;;;;8.37;5.13;;;;;;;;;;4915560;29;21018;-70
2023/09/04 19:05:06;;;;;;;8.67;5.40;;;;;;;;;;4916700;29;20928;-69
2023/09/04 19:07:32;;;;;;;7.43;5.13;;;;;;;;;;4918915;29;20426;-70
2023/09/04 19:09:58;;;;;;;7.43;4.90;;;;;;;;;;4917106;29;20430;-70
2023/09/04 19:12:24;;;;;;;11.13;5.70;;;;;;;;;;4916629;29;20435;-71
2023/09/04 19:14:51;;;;;;;7.90;5.70;;;;;;;;;;4916996;29;20470;-70
2023/09/04 19:17:17;;;;;;;8.77;5.70;;;;;;;;;;4917161;29;20422;-70
2023/09/04 19:19:43;;;;;;;8.97;6.03;;;;;;;;;;4917993;29;20426;-70
2023/09/04 19:22:09;;;;;;;9.70;5.90;;;;;;;;;;4919810;29;20946;-70
2023/09/04 19:24:35;;;;;;;9.77;5.00;;;;;;;;;;4919709;29;20432;-69
2023/09/04 19:27:02;;;;;;;10.93;5.20;;;;;;;;;;4917582;29;20414;-69
2023/09/04 19:29:28;;;;;;;6.60;5.17;;;;;;;;;;4917054;29;20446;-69
2023/09/04 19:31:54;;;;;;;13.40;6.23;;;;;;;;;;4917269;29;20529;-69
2023/09/04 19:34:20;;;;;;;9.60;5.50;;;;;;;;;;4917092;29;20501;-71
2023/09/04 19:36:46;;;;;;;10.03;5.77;;;;;;;;;;4915896;29;20415;-70
2023/09/04 19:39:12;;;;;;;7.73;5.70;;;;;;;;;;4915746;29;20549;-70
2023/09/04 19:41:40;;;;;;;9.07;5.53;;;;;;;;;;4917348;29;20956;-70
2023/09/04 19:44:06;;;;;;;12.67;6.33;;;;;;;;;;4917662;29;20434;-69
2023/09/04 19:46:32;;;;;;;9.77;5.83;;;;;;;;;;4918102;29;20443;-70
2023/09/04 19:48:59;;;;;;;8.77;5.20;;;;;;;;;;4917532;29;20419;-69
2023/09/04 19:51:25;;;;;;;8.60;5.70;;;;;;;;;;4918411;29;20452;-69
2023/09/04 19:53:51;;;;;;;12.20;5.90;;;;;;;;;;4917372;29;20558;-70
2023/09/04 19:56:17;;;;;;;9.43;5.53;;;;;;;;;;4915485;29;20842;-69
2023/09/04 19:58:43;;;;;;;7.40;5.53;;;;;;;;;;4933098;29;20418;-70
2023/09/04 20:01:09;;;;;;;8.63;6.37;;;;;;;;;;4930039;29;20454;-70
2023/09/04 20:03:36;;;;;;;11.33;5.77;;;;;;;;;;4919314;29;20920;-71
2023/09/04 20:06:02;;;;;;;13.80;5.87;;;;;;;;;;4919219;29;20508;-70
2023/09/04 20:08:28;;;;;;;9.50;5.43;;;;;;;;;;4918508;29;20969;-69
2023/09/04 20:10:54;;;;;;;9.53;5.60;;;;;;;;;;4918454;29;20434;-69
2023/09/04 20:13:20;;;;;;;9.80;5.53;;;;;;;;;;4918436;29;20462;-68
2023/09/04 20:15:46;;;;;;;16.03;5.40;;;;;;;;;;4916384;29;20422;-69
2023/09/04 20:18:12;;;;;;;9.07;6.27;;;;;;;;;;4908589;29;20431;-69
2023/09/04 20:20:38;;;;;;;8.23;5.47;;;;;;;;;;4916738;29;20431;-69
2023/09/04 20:23:04;;;;;;;8.50;6.20;;;;;;;;;;4917742;29;20435;-69
2023/09/04 20:25:31;;;;;;;7.67;6.10;;;;;;;;;;4917432;29;20831;-70
2023/09/04 20:27:57;;;;;;;12.80;6.10;;;;;;;;;;4917942;29;20411;-70
2023/09/04 20:30:24;;;;;;;9.10;6.07;;;;;;;;;;4929602;29;20544;-70
2023/09/04 20:32:51;;;;;;;8.60;5.57;;;;;;;;;;4937108;29;20409;-70
2023/09/04 20:35:17;;;;;;;8.23;5.60;;;;;;;;;;4937373;29;20410;-69
2023/09/04 20:37:43;;;;;;;9.30;6.80;;;;;;;;;;4936800;29;20418;-69